»·PEaware :: N3141P KSNA-KBFL

N3141P :: KSNA-KBFL

FLIGHT INFORMATION

Flight Status: Arrived
Operator: Privately registered:
United States
More flights under this callsign
Pilot: Andrew N. (12823)
Aircraft: PILATUS PC-12 EAGLE
(PC12)
More flights by this aircraft type
Origin: KSNA John Wayne-Orange Co
United States
Destination: KBFL Meadows
United States
More flights between these airports :: More routes between these airports
Route: +MUSEL8 SLI V459 LHS FASTO2
File this flight plan on PilotEdge
Remarks:
Altitude:
(Current/Filed)
28,000ft
Speed:
(Current/Filed)
250kts
Departed: 23-Sep-18 08:38 AM
Arrived: 23-Sep-18 09:17 AM
Distance/Time
Traveled:
121nm/0:39
Distance/Time
To Go:
Arrived

Flight Plot

Page will automatically refresh every two minutes.

Flight plan parsing failed; only flown route is shown


Map Options




Map Legend


Flown Route
Filed Route
Departure Airport
Arrival Airport
Navaid (VOR, NDB)
Fix

Horizontal Profiles

Position Reports

Time Latitude Longitude Heading Altitude Ground
Speed
23-Sep-18 08:15 33.673161 -117.872691 110 60ft 0kts
23-Sep-18 08:16 33.673161 -117.872691 110 60ft 0kts
23-Sep-18 08:17 33.673161 -117.872691 110 60ft 0kts
23-Sep-18 08:18 33.673161 -117.872691 110 60ft 0kts
23-Sep-18 08:19 33.673161 -117.872691 110 60ft 0kts
23-Sep-18 08:20 33.673161 -117.872691 110 60ft 0kts
23-Sep-18 08:21 33.673161 -117.872691 110 60ft 0kts
23-Sep-18 08:22 33.673161 -117.872691 110 60ft 0kts
23-Sep-18 08:23 33.673161 -117.872691 110 60ft 0kts
23-Sep-18 08:24 33.673161 -117.872691 110 60ft 0kts
23-Sep-18 08:25 33.673161 -117.872691 110 60ft 0kts
23-Sep-18 08:26 33.673161 -117.872691 110 60ft 0kts
23-Sep-18 08:27 33.673161 -117.872691 110 60ft 0kts
23-Sep-18 08:28 33.673161 -117.872691 110 60ft 0kts
23-Sep-18 08:29 33.673161 -117.872691 110 60ft 0kts
23-Sep-18 08:30 33.673161 -117.872691 110 60ft 0kts
23-Sep-18 08:31 33.673161 -117.872691 110 60ft 0kts
23-Sep-18 08:32 33.673161 -117.872691 110 60ft 0kts
23-Sep-18 08:33 33.673161 -117.872691 110 60ft 0kts
23-Sep-18 08:34 33.673161 -117.872691 110 60ft 0kts
23-Sep-18 08:35 33.673098 -117.872521 116 60ft 0kts
23-Sep-18 08:36 33.674228 -117.871261 26 60ft 23kts
23-Sep-18 08:37 33.681226 -117.866892 61 60ft 14kts
23-Sep-18 08:38 33.681183 -117.866377 119 60ft 0kts
23-Sep-18 08:39 33.680463 -117.865816 208 60ft 0kts
23-Sep-18 08:40 33.660998 -117.878854 209 846ft 121kts
23-Sep-18 08:41 33.629055 -117.889760 187 3161ft 129kts
23-Sep-18 08:42 33.595984 -117.894727 188 5613ft 123kts
23-Sep-18 08:43 33.577830 -117.921334 257 7893ft 133kts
23-Sep-18 08:44 33.573266 -117.982660 261 8218ft 217kts
23-Sep-18 08:45 33.568152 -118.052113 260 9999ft 191kts
23-Sep-18 08:46 33.564812 -118.115367 261 11760ft 194kts
23-Sep-18 08:47 33.600381 -118.144587 24 13807ft 193kts
23-Sep-18 08:48 33.648737 -118.120381 24 15672ft 198kts
23-Sep-18 08:49 33.705089 -118.092929 23 15987ft 258kts
23-Sep-18 08:50 33.772035 -118.060866 14 15983ft 281kts
23-Sep-18 08:51 33.829604 -118.081291 330 17958ft 223kts
23-Sep-18 08:52 33.882720 -118.111993 328 19710ft 217kts
23-Sep-18 08:53 33.936806 -118.143115 328 21194ft 221kts
23-Sep-18 08:54 33.992563 -118.175250 327 22615ft 225kts
23-Sep-18 08:55 34.049116 -118.207893 327 23954ft 228kts
23-Sep-18 08:56 34.105791 -118.240781 326 25195ft 231kts
23-Sep-18 08:57 34.163444 -118.274185 326 26323ft 234kts
23-Sep-18 08:58 34.221779 -118.307999 325 27384ft 236kts
23-Sep-18 08:59 34.240449 -118.318834 325 27706ft 237kts
23-Sep-18 09:00 34.343789 -118.378963 327 27996ft 275kts
23-Sep-18 09:01 34.413855 -118.419699 327 28001ft 284kts
23-Sep-18 09:02 34.484834 -118.461111 327 27746ft 292kts
23-Sep-18 09:03 34.557814 -118.503708 328 25741ft 291kts
23-Sep-18 09:04 34.630835 -118.546548 329 23647ft 297kts
23-Sep-18 09:05 34.701385 -118.595380 314 21412ft 287kts
23-Sep-18 09:06 34.761018 -118.656564 315 18989ft 292kts
23-Sep-18 09:07 34.824200 -118.721071 316 16523ft 306kts
23-Sep-18 09:08 34.887695 -118.785965 316 14181ft 299kts
23-Sep-18 09:09 34.950025 -118.849600 317 14114ft 287kts
23-Sep-18 09:10 35.027582 -118.861413 357 11627ft 272kts
23-Sep-18 09:11 35.102409 -118.861431 2 9139ft 263kts
23-Sep-18 09:12 35.171586 -118.845749 9 6662ft 272kts
23-Sep-18 09:13 35.239839 -118.828649 1 4158ft 235kts
23-Sep-18 09:14 35.284359 -118.875532 313 2506ft 209kts
23-Sep-18 09:15 35.326671 -118.927193 314 2500ft 219kts
23-Sep-18 09:16 35.368825 -118.977575 315 2208ft 187kts
23-Sep-18 09:17 35.398087 -119.013341 315 1431ft 125kts
23-Sep-18 09:18 35.421066 -119.040763 315 779ft 106kts
23-Sep-18 09:19 35.437413 -119.060354 349 497ft 31kts
23-Sep-18 09:20 35.438206 -119.059267 116 497ft 8kts
23-Sep-18 09:21 35.435252 -119.053615 79 497ft 23kts
23-Sep-18 09:22 35.435119 -119.053406 222 497ft 0kts
23-Sep-18 09:23 35.435119 -119.053406 222 497ft 0kts
23-Sep-18 09:24 35.435119 -119.053406 222 497ft 0kts
23-Sep-18 09:25 35.435119 -119.053406 222 497ft 0kts
23-Sep-18 09:26 35.435119 -119.053406 222 497ft 0kts
23-Sep-18 09:27 35.435119 -119.053406 222 497ft 0kts

Navigation Log

Ident Type
Flight plan parsing failed, navigation log unavailable